Time;durP1;ratioP1;P1;durP2;ratioP2;P2;SDS_P1;SDS_P2;PMS_P1;PMS_P2;Temp;Humidity;BMP_temperature;BMP_pressure;BME280_temperature;BME280_humidity;BME280_pressure;Samples;Min_cycle;Max_cycle;Signal;HPM_P1;HPM_P2
2022/07/08 00:00:43;;;;;;;1.65;1.02;;;20.60;62.90;;;;;;5082768;27;43522;-61
2022/07/08 00:03:11;;;;;;;1.38;0.90;;;20.60;62.90;;;;;;5083099;27;43606;-60
2022/07/08 00:05:39;;;;;;;1.50;1.00;;;20.60;62.90;;;;;;5082600;27;43918;-61
2022/07/08 00:08:06;;;;;;;1.13;0.90;;;20.60;62.90;;;;;;5082611;27;43959;-61
2022/07/08 00:10:34;;;;;;;1.95;0.90;;;20.60;62.90;;;;;;5083282;27;43517;-61
2022/07/08 00:13:01;;;;;;;1.55;0.90;;;20.60;62.90;;;;;;5082469;28;43941;-61
2022/07/08 00:15:29;;;;;;;2.30;1.10;;;20.50;62.90;;;;;;5082356;28;44961;-61
2022/07/08 00:17:57;;;;;;;1.38;0.75;;;20.50;62.90;;;;;;5082668;27;43976;-61
2022/07/08 00:20:24;;;;;;;1.15;0.90;;;20.50;62.90;;;;;;5082890;28;43577;-61
2022/07/08 00:22:51;;;;;;;1.63;1.10;;;20.50;62.90;;;;;;5081920;28;43616;-61
2022/07/08 00:25:19;;;;;;;1.77;0.77;;;20.50;62.90;;;;;;5083205;27;44336;-61
2022/07/08 00:27:46;;;;;;;2.58;1.17;;;20.50;62.90;;;;;;5081860;28;43973;-61
2022/07/08 00:30:13;;;;;;;2.08;0.90;;;20.50;62.90;;;;;;5083044;28;43496;-61
2022/07/08 00:32:41;;;;;;;1.73;0.82;;;20.50;62.90;;;;;;5077218;27;44037;-61
2022/07/08 00:35:08;;;;;;;1.27;0.82;;;20.50;62.90;;;;;;5082159;28;45005;-61
2022/07/08 00:37:36;;;;;;;1.15;0.70;;;20.50;62.90;;;;;;5082522;28;44318;-61
2022/07/08 00:40:04;;;;;;;2.03;0.90;;;20.50;63.00;;;;;;5082339;28;43454;-61
2022/07/08 00:42:31;;;;;;;1.23;0.93;;;20.50;62.90;;;;;;5082381;27;43611;-61
2022/07/08 00:44:59;;;;;;;1.52;1.00;;;20.50;62.90;;;;;;5082584;28;44002;-61
2022/07/08 00:47:26;;;;;;;2.15;1.08;;;20.50;62.90;;;;;;5082061;27;43900;-61
2022/07/08 00:49:54;;;;;;;2.05;1.02;;;20.50;63.00;;;;;;5082256;28;43476;-61
2022/07/08 00:52:23;;;;;;;1.85;0.88;;;20.50;63.10;;;;;;5082803;27;43531;-61
2022/07/08 00:54:51;;;;;;;1.05;0.70;;;20.50;63.10;;;;;;5081684;27;44054;-61
2022/07/08 00:57:18;;;;;;;0.88;0.60;;;20.50;63.10;;;;;;5083810;27;43907;-61
2022/07/08 00:59:48;;;;;;;1.05;0.75;;;20.50;63.10;;;;;;5082917;27;43497;-61
2022/07/08 01:02:15;;;;;;;1.45;1.05;;;20.50;63.10;;;;;;5082093;27;43567;-61
2022/07/08 01:04:42;;;;;;;0.90;0.85;;;20.40;63.00;;;;;;5082198;28;45138;-61
2022/07/08 01:07:10;;;;;;;1.65;0.90;;;20.40;63.00;;;;;;5082428;27;43980;-61
2022/07/08 01:09:37;;;;;;;1.77;1.00;;;20.40;63.00;;;;;;5081372;27;43499;-61
2022/07/08 01:12:05;;;;;;;1.13;0.80;;;20.40;63.00;;;;;;5082056;27;43579;-61
2022/07/08 01:14:32;;;;;;;0.98;0.75;;;20.40;62.90;;;;;;5082465;27;44027;-61
2022/07/08 01:17:00;;;;;;;1.92;0.95;;;20.50;63.00;;;;;;5081350;27;44152;-61
2022/07/08 01:19:27;;;;;;;1.25;0.88;;;20.50;62.90;;;;;;5082248;28;43449;-61
2022/07/08 01:21:55;;;;;;;2.00;0.77;;;20.40;62.90;;;;;;5082062;27;43574;-61
2022/07/08 01:24:23;;;;;;;1.42;0.70;;;20.40;63.00;;;;;;5081739;27;44050;-61
2022/07/08 01:26:50;;;;;;;1.02;0.70;;;20.40;63.00;;;;;;5068331;28;43573;-61
2022/07/08 01:29:18;;;;;;;1.30;0.88;;;20.40;63.00;;;;;;5083680;28;43510;-61
2022/07/08 01:31:50;;;;;;;1.10;0.90;;;20.40;63.00;;;;;;5084813;28;43647;-61
2022/07/08 01:34:18;;;;;;;1.25;0.70;;;20.40;63.00;;;;;;5077538;27;45029;-61
2022/07/08 01:36:45;;;;;;;1.42;0.80;;;20.40;63.10;;;;;;5079753;28;43442;-61
2022/07/08 01:39:12;;;;;;;1.27;0.50;;;20.40;63.00;;;;;;5085418;28;43993;-61
2022/07/08 01:41:39;;;;;;;1.02;0.80;;;20.40;63.10;;;;;;5072079;28;43563;-61
2022/07/08 01:44:07;;;;;;;1.83;1.15;;;20.40;63.10;;;;;;5084963;28;45037;-61
2022/07/08 01:46:35;;;;;;;1.00;0.90;;;20.40;63.10;;;;;;5085234;27;43552;-61
2022/07/08 01:49:02;;;;;;;1.27;0.93;;;20.40;63.10;;;;;;5085272;28;43406;-62
2022/07/08 01:51:29;;;;;;;1.35;0.90;;;20.40;63.10;;;;;;5084792;27;43592;-61
2022/07/08 01:53:57;;;;;;;0.90;0.75;;;20.30;63.00;;;;;;5085252;27;44948;-61
2022/07/08 01:56:24;;;;;;;0.98;0.68;;;20.30;63.10;;;;;;5085387;28;44002;-61
2022/07/08 01:58:51;;;;;;;1.40;0.85;;;20.40;63.10;;;;;;5092594;27;43441;-60
2022/07/08 02:01:19;;;;;;;1.35;0.82;;;20.30;63.00;;;;;;5085814;27;43502;-62
2022/07/08 02:03:46;;;;;;;1.85;0.80;;;20.30;63.00;;;;;;5084294;28;45293;-61
2022/07/08 02:06:13;;;;;;;1.42;0.98;;;20.30;63.00;;;;;;5085117;27;44214;-61
2022/07/08 02:08:41;;;;;;;1.60;1.02;;;20.30;63.00;;;;;;5084587;28;43718;-61
2022/07/08 02:13:54;;;;;;;1.63;0.73;;;20.30;63.10;;;;;;5077831;28;44955;-61
2022/07/08 02:16:22;;;;;;;1.00;0.80;;;20.30;63.10;;;;;;5070062;28;43498;-61
2022/07/08 02:18:49;;;;;;;1.85;0.98;;;20.30;63.10;;;;;;5084027;27;43372;-61
2022/07/08 02:21:17;;;;;;;1.40;0.73;;;20.30;63.00;;;;;;5085139;27;43636;-61
2022/07/08 02:23:44;;;;;;;1.52;0.90;;;20.30;63.10;;;;;;5084595;27;45053;-61
2022/07/08 02:26:11;;;;;;;0.98;0.60;;;20.30;63.10;;;;;;5084329;28;43781;-62
2022/07/08 02:28:39;;;;;;;2.17;0.80;;;20.30;63.10;;;;;;5084624;27;43445;-61
2022/07/08 02:31:06;;;;;;;1.75;0.75;;;20.30;63.10;;;;;;5084819;27;43545;-62
2022/07/08 02:33:33;;;;;;;1.25;0.85;;;20.30;63.70;;;;;;5079031;28;44037;-61
2022/07/08 02:36:00;;;;;;;1.00;0.80;;;20.30;63.10;;;;;;5084422;27;43983;-61
2022/07/08 02:38:28;;;;;;;1.05;0.95;;;20.30;63.10;;;;;;5083004;28;43455;-61
2022/07/08 02:40:56;;;;;;;1.27;0.85;;;20.30;63.10;;;;;;5083950;27;43426;-61
2022/07/08 02:43:23;;;;;;;1.60;0.82;;;20.30;63.10;;;;;;5084690;28;44946;-61
2022/07/08 02:45:50;;;;;;;1.33;0.70;;;20.30;63.00;;;;;;5084318;27;44144;-61
2022/07/08 02:48:18;;;;;;;1.23;1.00;;;20.30;63.00;;;;;;5083787;28;43565;-61
2022/07/08 02:50:45;;;;;;;0.77;0.50;;;20.30;63.10;;;;;;5084131;28;43549;-61
2022/07/08 02:53:12;;;;;;;1.27;0.80;;;20.30;63.00;;;;;;5100374;27;44953;-61
2022/07/08 02:55:40;;;;;;;1.70;0.80;;;20.30;63.00;;;;;;5083455;27;43813;-61
2022/07/08 02:58:07;;;;;;;1.85;0.70;;;20.30;63.00;;;;;;5087562;27;43565;-61
2022/07/08 03:00:34;;;;;;;1.23;0.88;;;20.30;63.10;;;;;;5083981;27;43502;-61
2022/07/08 03:03:02;;;;;;;1.63;0.93;;;20.30;63.10;;;;;;5083417;28;44255;-61
2022/07/08 03:05:29;;;;;;;0.70;0.70;;;20.30;63.00;;;;;;5084391;27;43956;-61
2022/07/08 03:07:56;;;;;;;0.65;0.65;;;20.20;63.10;;;;;;5082004;27;43463;-61
2022/07/08 03:10:24;;;;;;;1.58;0.82;;;20.30;63.10;;;;;;5084040;27;43583;-61
2022/07/08 03:12:51;;;;;;;0.75;0.70;;;20.30;63.10;;;;;;5083552;27;45002;-62
2022/07/08 03:15:18;;;;;;;0.93;0.73;;;20.20;63.00;;;;;;5083929;27;43939;-61
2022/07/08 03:17:45;;;;;;;0.90;0.90;;;20.30;63.10;;;;;;5083418;27;43473;-61
2022/07/08 03:20:13;;;;;;;1.05;0.77;;;20.30;63.10;;;;;;5084257;28;43486;-61
2022/07/08 03:22:40;;;;;;;1.92;0.75;;;20.30;63.10;;;;;;5082719;28;45009;-61
2022/07/08 03:25:08;;;;;;;0.90;0.60;;;20.30;63.10;;;;;;5083869;27;43450;-61
2022/07/08 03:27:35;;;;;;;0.90;0.70;;;20.20;63.00;;;;;;5083034;27;43591;-61
2022/07/08 03:30:04;;;;;;;1.95;1.00;;;20.20;63.00;;;;;;5082835;27;43540;-61
2022/07/08 03:32:31;;;;;;;2.35;1.00;;;20.20;63.00;;;;;;5078786;27;43802;-61
2022/07/08 03:34:59;;;;;;;1.30;0.80;;;20.20;63.10;;;;;;5080665;28;43514;-62
2022/07/08 03:37:26;;;;;;;2.30;1.17;;;20.30;63.10;;;;;;5083237;27;43470;-61
2022/07/08 03:39:53;;;;;;;1.02;0.73;;;20.20;63.10;;;;;;5083819;28;43545;-61
2022/07/08 03:42:21;;;;;;;1.25;0.70;;;20.20;63.10;;;;;;5083552;27;44104;-61
2022/07/08 03:44:48;;;;;;;1.77;1.08;;;20.20;63.00;;;;;;5083076;27;44002;-61
2022/07/08 03:47:15;;;;;;;1.80;0.90;;;20.20;63.10;;;;;;5083166;27;43592;-61
2022/07/08 03:49:42;;;;;;;1.05;0.70;;;20.20;63.10;;;;;;5082773;27;43683;-61
2022/07/08 03:52:11;;;;;;;1.05;0.73;;;20.20;63.00;;;;;;5079780;28;45164;-61
2022/07/08 03:54:38;;;;;;;1.30;1.10;;;20.20;63.00;;;;;;5083377;27;44158;-62
2022/07/08 03:57:06;;;;;;;0.77;0.68;;;20.20;63.10;;;;;;5082852;27;43485;-61
2022/07/08 03:59:33;;;;;;;2.15;1.00;;;20.20;63.10;;;;;;5071100;27;44085;-61
2022/07/08 04:02:00;;;;;;;1.25;0.82;;;20.20;63.10;;;;;;5076427;28;44921;-61
2022/07/08 04:04:28;;;;;;;1.20;0.80;;;20.20;63.10;;;;;;5082845;28;43520;-61
2022/07/08 04:06:55;;;;;;;0.80;0.70;;;20.20;63.10;;;;;;5082818;28;43479;-61
2022/07/08 04:09:22;;;;;;;1.05;0.73;;;20.20;63.10;;;;;;5083123;27;43558;-61
2022/07/08 04:11:49;;;;;;;0.63;0.60;;;20.20;63.10;;;;;;5082109;28;44973;-61
2022/07/08 04:14:17;;;;;;;1.08;0.80;;;20.20;63.10;;;;;;5083256;28;43401;-61
2022/07/08 04:16:44;;;;;;;1.45;0.77;;;20.20;63.10;;;;;;5082871;27;43529;-62
2022/07/08 04:19:11;;;;;;;2.00;0.77;;;20.20;63.10;;;;;;5082868;27;43571;-61
2022/07/08 04:21:40;;;;;;;1.70;0.60;;;20.10;63.00;;;;;;5083099;27;45057;-61
2022/07/08 04:24:07;;;;;;;1.48;0.90;;;20.10;63.00;;;;;;5083365;27;43980;-61
2022/07/08 04:26:35;;;;;;;1.52;0.88;;;20.10;63.10;;;;;;5082491;27;43490;-61
2022/07/08 04:29:02;;;;;;;1.20;0.93;;;20.20;63.10;;;;;;5082954;27;43624;-61
2022/07/08 04:31:29;;;;;;;1.52;1.15;;;20.20;63.20;;;;;;5083064;27;44034;-61
2022/07/08 04:33:57;;;;;;;1.58;0.52;;;20.20;63.20;;;;;;5082131;28;43680;-61
2022/07/08 04:36:24;;;;;;;2.00;0.95;;;20.20;63.10;;;;;;5083167;27;43454;-61
2022/07/08 04:38:52;;;;;;;2.42;0.80;;;20.20;63.10;;;;;;5082477;28;43549;-62
2022/07/08 04:41:19;;;;;;;1.40;0.90;;;20.20;63.10;;;;;;5082208;27;44271;-61
2022/07/08 04:43:46;;;;;;;1.23;0.73;;;20.10;63.10;;;;;;5082371;27;44062;-61
2022/07/08 04:46:14;;;;;;;2.45;0.90;;;20.20;63.10;;;;;;5082638;28;43409;-61
2022/07/08 04:48:41;;;;;;;2.70;0.95;;;20.10;63.10;;;;;;5082146;27;43542;-62
2022/07/08 04:51:09;;;;;;;0.90;0.90;;;20.10;63.10;;;;;;5082852;27;45134;-61
2022/07/08 04:53:36;;;;;;;0.60;0.60;;;20.20;63.20;;;;;;5081850;27;43954;-61
2022/07/08 04:56:04;;;;;;;1.38;0.95;;;20.10;63.80;;;;;;5082633;27;43434;-61
2022/07/08 04:58:31;;;;;;;2.00;1.08;;;20.10;63.10;;;;;;5085462;27;43596;-61
2022/07/08 05:00:59;;;;;;;1.27;0.88;;;20.20;63.10;;;;;;5081693;27;44792;-61
2022/07/08 05:03:26;;;;;;;0.80;0.80;;;20.20;63.20;;;;;;5081667;28;43612;-61
2022/07/08 05:06:01;;;;;;;1.42;0.98;;;20.10;63.10;;;;;;5077467;28;43382;-61
2022/07/08 05:08:28;;;;;;;1.90;0.90;;;20.10;63.10;;;;;;5081613;28;43593;-61
2022/07/08 05:10:56;;;;;;;1.60;0.95;;;20.10;63.10;;;;;;5082098;27;45078;-61
2022/07/08 05:13:23;;;;;;;0.77;0.65;;;20.10;63.10;;;;;;5082420;28;43517;-61
2022/07/08 05:15:51;;;;;;;1.25;0.73;;;20.10;63.10;;;;;;5081509;27;43466;-61
2022/07/08 05:18:18;;;;;;;1.70;1.13;;;20.10;63.10;;;;;;5082226;27;43585;-61
2022/07/08 05:20:45;;;;;;;2.53;1.10;;;20.10;63.20;;;;;;5081660;28;45152;-61
2022/07/08 05:23:13;;;;;;;1.33;0.93;;;20.10;63.10;;;;;;5080362;28;43550;-61
2022/07/08 05:25:40;;;;;;;0.85;0.70;;;20.10;63.10;;;;;;5082187;28;43428;-61
2022/07/08 05:28:07;;;;;;;2.15;0.95;;;20.10;63.20;;;;;;5082267;27;43625;-61
2022/07/08 05:30:35;;;;;;;1.60;0.95;;;20.10;63.20;;;;;;5081391;27;44470;-61
2022/07/08 05:33:02;;;;;;;2.08;1.00;;;20.10;63.20;;;;;;5081566;27;43442;-61
2022/07/08 05:35:30;;;;;;;1.55;0.82;;;20.10;63.20;;;;;;5081691;27;43461;-60
2022/07/08 05:37:57;;;;;;;1.15;0.90;;;20.10;63.80;;;;;;5070978;28;43640;-61
2022/07/08 05:40:24;;;;;;;0.90;0.90;;;20.10;63.20;;;;;;5082222;27;44161;-61
2022/07/08 05:42:52;;;;;;;1.40;1.10;;;20.10;63.20;;;;;;5081029;28;43902;-61
2022/07/08 05:45:19;;;;;;;1.80;1.08;;;20.10;63.20;;;;;;5082092;27;43461;-61
2022/07/08 05:47:46;;;;;;;1.48;0.82;;;20.10;63.30;;;;;;5081593;27;43585;-60
2022/07/08 05:50:14;;;;;;;0.95;0.80;;;20.10;63.20;;;;;;5069997;28;46265;-61
2022/07/08 05:52:41;;;;;;;1.45;0.90;;;20.10;63.20;;;;;;5081747;27;43725;-61
2022/07/08 05:55:09;;;;;;;1.88;0.93;;;20.10;63.30;;;;;;5081998;27;43459;-61
2022/07/08 05:57:36;;;;;;;1.60;1.00;;;20.10;63.30;;;;;;5084917;27;43581;-61
2022/07/08 06:00:05;;;;;;;1.88;1.08;;;20.10;63.20;;;;;;5086367;27;44240;-61
2022/07/08 06:02:38;;;;;;;2.00;0.88;;;20.10;63.30;;;;;;5081259;27;44332;-62
2022/07/08 06:05:06;;;;;;;1.40;0.80;;;20.10;63.30;;;;;;5081251;27;43516;-61
2022/07/08 06:07:33;;;;;;;0.80;0.80;;;20.10;63.30;;;;;;5079419;27;43549;-61
2022/07/08 06:10:01;;;;;;;1.20;0.80;;;20.10;63.20;;;;;;5075307;28;45141;-61
2022/07/08 06:12:28;;;;;;;1.30;0.70;;;20.10;63.30;;;;;;5080889;27;43544;-61
2022/07/08 06:14:55;;;;;;;1.50;0.98;;;20.10;63.30;;;;;;5070284;28;43448;-61
2022/07/08 06:17:23;;;;;;;1.30;1.00;;;20.10;63.30;;;;;;5085395;27;43434;-61
2022/07/08 06:19:50;;;;;;;1.60;0.98;;;20.20;63.30;;;;;;5083578;28;43809;-61
2022/07/08 06:22:17;;;;;;;1.25;0.98;;;20.20;63.30;;;;;;5085238;28;43643;-61
2022/07/08 06:24:44;;;;;;;1.20;0.65;;;20.20;63.30;;;;;;5083812;28;43431;-61
2022/07/08 06:27:12;;;;;;;1.25;0.80;;;20.20;63.30;;;;;;5084998;28;43604;-61
2022/07/08 06:29:39;;;;;;;1.50;1.10;;;20.20;63.30;;;;;;5083954;27;45030;-61
2022/07/08 06:32:07;;;;;;;1.00;0.90;;;20.20;63.40;;;;;;5079500;28;43467;-61
2022/07/08 06:34:34;;;;;;;1.13;0.80;;;20.20;63.40;;;;;;5084366;28;43465;-61
2022/07/08 06:37:02;;;;;;;1.98;0.80;;;20.20;63.40;;;;;;5084821;28;43558;-61
2022/07/08 06:39:29;;;;;;;1.27;0.70;;;20.10;63.40;;;;;;5083413;28;44185;-60
2022/07/08 06:41:57;;;;;;;1.25;1.00;;;20.20;63.40;;;;;;5084415;27;43478;-61
2022/07/08 06:44:25;;;;;;;1.35;0.85;;;20.20;63.40;;;;;;5082871;27;43404;-62
2022/07/08 06:46:52;;;;;;;1.20;1.10;;;20.20;63.40;;;;;;5073785;28;43672;-61
2022/07/08 06:49:19;;;;;;;1.23;0.95;;;20.20;63.50;;;;;;5083080;28;45013;-62
2022/07/08 06:51:47;;;;;;;1.77;0.77;;;20.20;63.50;;;;;;5083839;28;43964;-62
2022/07/08 06:57:00;;;;;;;1.67;0.90;;;20.20;63.50;;;;;;5084006;28;44113;-61
2022/07/08 06:59:28;;;;;;;1.08;0.75;;;20.20;63.50;;;;;;5086229;27;44696;-62
2022/07/08 07:02:16;;;;;;;1.30;0.90;;;20.20;63.50;;;;;;5084015;28;43462;-61
2022/07/08 07:04:43;;;;;;;1.88;0.80;;;20.20;63.60;;;;;;5084486;28;43390;-62
2022/07/08 07:07:11;;;;;;;1.48;0.82;;;20.20;63.50;;;;;;5077386;28;43472;-62
2022/07/08 07:09:45;;;;;;;1.45;1.00;;;20.20;63.50;;;;;;5081524;28;43868;-62
2022/07/08 07:12:14;;;;;;;1.17;1.05;;;20.20;63.50;;;;;;5084367;27;44190;-61
2022/07/08 07:14:42;;;;;;;1.10;0.90;;;20.20;63.60;;;;;;5083339;27;43425;-61
2022/07/08 07:17:09;;;;;;;1.50;0.70;;;20.20;63.60;;;;;;5084737;27;43479;-62
2022/07/08 07:19:37;;;;;;;1.63;0.93;;;20.20;63.60;;;;;;5083355;28;44041;-62
2022/07/08 07:22:04;;;;;;;0.95;0.70;;;20.20;63.60;;;;;;5083031;27;43997;-61
2022/07/08 07:24:32;;;;;;;1.67;1.20;;;20.20;63.50;;;;;;5083249;27;43412;-62
2022/07/08 07:26:59;;;;;;;1.40;0.82;;;20.20;63.60;;;;;;5083819;28;43557;-61
2022/07/08 07:29:26;;;;;;;1.60;0.75;;;20.20;63.60;;;;;;5082871;27;44014;-62
2022/07/08 07:31:54;;;;;;;1.05;0.88;;;20.20;63.60;;;;;;5083474;27;43549;-61
2022/07/08 07:34:21;;;;;;;0.82;0.82;;;20.20;63.60;;;;;;5076659;27;43395;-61
2022/07/08 07:36:48;;;;;;;1.27;0.80;;;20.20;63.60;;;;;;5082868;27;43485;-61
2022/07/08 07:39:23;;;;;;;1.50;0.80;;;20.20;63.60;;;;;;5083505;27;44974;-61
2022/07/08 07:41:50;;;;;;;2.00;0.98;;;20.20;63.70;;;;;;5083011;27;43553;-61
2022/07/08 07:44:18;;;;;;;1.42;1.08;;;20.20;63.60;;;;;;5083321;28;43472;-61
2022/07/08 07:46:45;;;;;;;2.45;1.00;;;20.30;63.60;;;;;;5083441;28;43561;-61
2022/07/08 07:49:13;;;;;;;1.13;0.90;;;20.20;63.50;;;;;;5083135;27;44998;-61
2022/07/08 07:51:40;;;;;;;1.38;0.90;;;20.20;63.70;;;;;;5082920;27;43593;-61
2022/07/08 07:54:07;;;;;;;1.63;0.98;;;20.20;63.60;;;;;;5083771;27;43489;-61
2022/07/08 07:56:35;;;;;;;1.52;0.95;;;20.20;63.70;;;;;;5082860;28;43600;-61
2022/07/08 07:59:05;;;;;;;1.40;1.10;;;20.20;63.60;;;;;;5091511;27;45115;-61
2022/07/08 08:01:32;;;;;;;0.82;0.80;;;20.20;63.70;;;;;;5076011;28;43983;-60
2022/07/08 08:04:00;;;;;;;1.92;0.95;;;20.20;63.70;;;;;;5082624;28;43481;-61
2022/07/08 08:06:28;;;;;;;1.20;0.98;;;20.20;63.70;;;;;;5083483;27;43504;-61
2022/07/08 08:08:56;;;;;;;1.52;0.85;;;20.20;63.70;;;;;;5082642;27;45000;-61
2022/07/08 08:11:23;;;;;;;1.35;0.80;;;20.20;63.90;;;;;;5082670;27;43484;-61
2022/07/08 08:13:50;;;;;;;1.17;0.93;;;20.30;63.90;;;;;;5082807;27;43425;-61
2022/07/08 08:16:18;;;;;;;1.00;0.88;;;20.30;63.80;;;;;;5083512;27;43559;-61
2022/07/08 08:18:45;;;;;;;1.83;0.93;;;20.30;63.90;;;;;;5081984;27;44983;-61
2022/07/08 08:21:13;;;;;;;1.20;1.08;;;20.30;64.00;;;;;;5083034;28;43450;-61
2022/07/08 08:23:40;;;;;;;1.85;0.98;;;20.30;64.00;;;;;;5078738;28;43501;-61
2022/07/08 08:26:08;;;;;;;1.27;0.75;;;20.30;63.90;;;;;;5081260;28;43450;-61
2022/07/08 08:28:36;;;;;;;1.83;1.10;;;20.40;64.00;;;;;;5081135;28;43900;-61
2022/07/08 08:31:03;;;;;;;1.85;1.05;;;20.40;64.10;;;;;;5081463;27;44011;-61
2022/07/08 08:33:31;;;;;;;2.17;1.00;;;20.40;64.30;;;;;;5079261;28;43379;-61
2022/07/08 08:36:00;;;;;;;2.05;1.23;;;20.40;64.30;;;;;;5081285;27;43517;-61
2022/07/08 08:38:27;;;;;;;1.85;1.05;;;20.40;64.60;;;;;;5080564;28;44358;-61
2022/07/08 08:40:59;;;;;;;2.20;1.10;;;20.50;65.00;;;;;;5079773;28;43494;-61
2022/07/08 08:43:27;;;;;;;1.88;1.20;;;20.50;65.10;;;;;;5078220;28;43664;-61
2022/07/08 08:45:55;;;;;;;1.63;1.10;;;20.50;64.70;;;;;;5080386;28;44135;-61
2022/07/08 08:48:25;;;;;;;1.65;1.00;;;20.50;64.50;;;;;;5081164;28;44702;-60
2022/07/08 08:50:54;;;;;;;1.23;1.13;;;20.50;64.60;;;;;;5080900;27;44045;-60
2022/07/08 08:53:30;;;;;;;2.25;1.13;;;20.50;64.60;;;;;;5081004;27;43551;-60
2022/07/08 08:56:00;;;;;;;2.22;1.08;;;20.50;64.60;;;;;;5080243;28;43511;-60
2022/07/08 08:58:28;;;;;;;1.27;0.90;;;20.50;65.30;;;;;;5081565;27;44788;-60
2022/07/08 09:00:56;;;;;;;2.05;1.20;;;20.60;64.60;;;;;;5080075;27;43484;-60
2022/07/08 09:03:23;;;;;;;2.35;1.25;;;20.60;64.70;;;;;;5074175;28;43603;-60
2022/07/08 09:05:51;;;;;;;1.45;1.15;;;20.60;64.70;;;;;;5078811;27;44259;-60
2022/07/08 09:08:18;;;;;;;2.92;1.20;;;20.60;64.70;;;;;;5077541;27;43796;-60
2022/07/08 09:10:46;;;;;;;2.30;1.45;;;20.60;64.70;;;;;;5075902;27;44004;-60
2022/07/08 09:13:15;;;;;;;1.95;1.30;;;20.60;64.70;;;;;;5078038;27;43529;-60
2022/07/08 09:15:43;;;;;;;2.55;1.45;;;20.60;64.70;;;;;;5078970;27;43517;-60
2022/07/08 09:18:15;;;;;;;2.10;1.17;;;20.60;64.60;;;;;;5077825;27;44961;-60
2022/07/08 09:20:48;;;;;;;2.33;1.30;;;20.60;64.60;;;;;;5077301;27;43634;-60
2022/07/08 09:23:18;;;;;;;2.47;1.13;;;20.60;64.50;;;;;;5077030;28;43523;-60
2022/07/08 09:25:48;;;;;;;1.95;1.17;;;20.60;64.50;;;;;;5076197;28;43526;-59
2022/07/08 09:28:27;;;;;;;3.53;1.58;;;20.60;64.50;;;;;;5080610;27;44049;-60
2022/07/08 09:30:56;;;;;;;3.30;1.33;;;20.60;64.40;;;;;;5081994;27;43422;-60
2022/07/08 09:33:27;;;;;;;1.83;1.20;;;20.60;64.40;;;;;;5074530;27;43383;-60
2022/07/08 09:35:56;;;;;;;1.58;1.00;;;20.60;64.50;;;;;;5081423;27;43441;-60
2022/07/08 09:38:24;;;;;;;2.83;1.30;;;20.60;64.40;;;;;;5081698;28;44056;-60
2022/07/08 09:41:05;;;;;;;2.90;1.38;;;20.60;64.40;;;;;;5080997;27;43988;-60
2022/07/08 09:43:42;;;;;;;2.63;1.30;;;20.60;64.50;;;;;;5073590;28;43417;-60
2022/07/08 09:46:09;;;;;;;2.70;1.20;;;20.70;64.50;;;;;;5074812;28;43569;-60
2022/07/08 09:48:36;;;;;;;2.10;1.30;;;20.60;64.50;;;;;;5082902;27;44024;-61
2022/07/08 09:51:07;;;;;;;1.90;1.20;;;20.70;64.60;;;;;;5085024;28;43609;-60
2022/07/08 09:53:39;;;;;;;2.72;1.38;;;20.70;64.40;;;;;;5083813;28;43468;-60
2022/07/08 09:56:08;;;;;;;2.03;1.20;;;20.70;64.30;;;;;;5084798;28;43384;-60
2022/07/08 09:58:36;;;;;;;1.85;1.30;;;20.70;64.40;;;;;;5094512;27;44952;-60
2022/07/08 10:01:04;;;;;;;3.40;1.20;;;20.70;64.40;;;;;;5084994;27;43787;-60
2022/07/08 10:03:32;;;;;;;2.17;1.27;;;20.70;64.50;;;;;;5083445;27;43529;-60
2022/07/08 10:06:02;;;;;;;2.00;1.25;;;20.70;64.30;;;;;;5080641;28;43447;-60
2022/07/08 10:08:30;;;;;;;2.60;1.38;;;20.80;64.40;;;;;;5083516;28;44757;-61
2022/07/08 10:11:00;;;;;;;2.60;1.23;;;20.80;64.40;;;;;;5082074;28;43466;-60
2022/07/08 10:13:28;;;;;;;1.33;1.23;;;20.80;64.30;;;;;;5084234;27;43461;-60
2022/07/08 10:15:57;;;;;;;1.52;0.93;;;20.80;64.30;;;;;;5083849;28;43482;-61
2022/07/08 10:18:38;;;;;;;1.45;1.35;;;20.80;64.20;;;;;;5082726;28;44730;-60
2022/07/08 10:21:10;;;;;;;1.83;1.20;;;20.80;64.20;;;;;;5080900;28;43974;-60
2022/07/08 10:23:46;;;;;;;2.22;1.52;;;20.90;64.20;;;;;;5066958;28;44038;-60
2022/07/08 10:26:35;;;;;;;3.03;1.42;;;20.90;64.40;;;;;;5083495;27;43567;-61
2022/07/08 10:29:13;;;;;;;1.73;1.35;;;20.90;64.20;;;;;;5083002;27;45015;-60
2022/07/08 10:31:46;;;;;;;3.38;1.33;;;20.90;64.20;;;;;;5078437;27;43546;-60
2022/07/08 10:34:22;;;;;;;1.88;1.27;;;20.90;64.40;;;;;;5076234;28;43442;-61
2022/07/08 10:36:52;;;;;;;1.88;1.30;;;20.90;64.30;;;;;;5074742;27;43458;-61
2022/07/08 10:39:28;;;;;;;1.88;1.40;;;20.90;64.40;;;;;;5077254;27;44027;-61
2022/07/08 10:42:06;;;;;;;1.63;1.13;;;20.90;64.50;;;;;;5076724;28;43416;-59
2022/07/08 10:44:54;;;;;;;0.90;0.90;;;21.00;64.60;;;;;;5082272;28;43522;-60
2022/07/08 10:47:28;;;;;;;3.08;1.35;;;21.00;64.70;;;;;;5083603;27;43512;-60
2022/07/08 10:50:05;;;;;;;2.30;1.30;;;21.00;64.60;;;;;;5082775;27;43976;-60
2022/07/08 10:52:41;;;;;;;1.63;0.95;;;21.00;64.60;;;;;;5082839;28;43407;-60
2022/07/08 10:55:14;;;;;;;2.85;1.42;;;21.00;64.60;;;;;;5083948;27;43389;-60
2022/07/08 10:57:57;;;;;;;2.83;1.20;;;21.00;64.60;;;;;;5080836;27;43469;-60
2022/07/08 11:00:25;;;;;;;2.17;1.35;;;21.00;64.60;;;;;;5076030;27;43885;-59
2022/07/08 11:02:53;;;;;;;2.50;1.30;;;21.10;64.60;;;;;;5078650;27;43538;-61
2022/07/08 11:05:38;;;;;;;1.60;1.10;;;21.10;64.70;;;;;;5070900;27;43552;-61
2022/07/08 11:08:25;;;;;;;2.58;1.15;;;21.10;64.50;;;;;;5081377;27;43489;-60
2022/07/08 11:10:55;;;;;;;1.42;1.17;;;21.10;64.40;;;;;;5081244;28;45133;-60
2022/07/08 11:13:24;;;;;;;1.45;1.30;;;21.10;64.40;;;;;;5081593;27;43470;-60
2022/07/08 11:15:53;;;;;;;1.97;1.10;;;21.10;64.30;;;;;;5081984;28;43430;-60
2022/07/08 11:18:25;;;;;;;3.25;1.52;;;21.10;64.50;;;;;;5083199;27;43502;-60
2022/07/08 11:21:00;;;;;;;2.15;1.23;;;21.10;64.40;;;;;;5081940;27;43805;-60
2022/07/08 11:23:29;;;;;;;2.38;1.33;;;21.20;64.50;;;;;;5082607;27;43455;-60
2022/07/08 11:25:58;;;;;;;2.10;1.10;;;21.20;64.70;;;;;;5082889;28;43419;-60
2022/07/08 11:28:25;;;;;;;2.28;1.33;;;21.10;64.60;;;;;;5074397;28;43420;-60
2022/07/08 11:30:53;;;;;;;2.38;1.30;;;21.20;64.60;;;;;;5082361;27;43776;-60
2022/07/08 11:33:41;;;;;;;2.72;1.30;;;21.20;64.70;;;;;;5082558;27;43604;-60
2022/07/08 11:36:14;;;;;;;1.52;1.20;;;21.20;64.50;;;;;;5069448;27;43523;-60
2022/07/08 11:38:41;;;;;;;1.92;1.20;;;21.20;64.50;;;;;;5082777;27;43468;-61
2022/07/08 11:41:09;;;;;;;2.85;1.63;;;21.20;64.70;;;;;;5082291;28;43782;-61
2022/07/08 11:43:36;;;;;;;2.38;1.30;;;21.20;64.60;;;;;;5082313;27;43502;-60
2022/07/08 11:46:20;;;;;;;2.20;1.20;;;21.30;64.70;;;;;;5082352;27;43477;-61
2022/07/08 11:48:48;;;;;;;1.90;1.10;;;21.30;64.20;;;;;;5081411;28;43626;-61
2022/07/08 11:51:16;;;;;;;1.83;1.30;;;21.30;64.40;;;;;;5082185;28;44860;-61
2022/07/08 11:53:44;;;;;;;2.63;1.17;;;21.30;64.30;;;;;;5070022;28;43410;-61
2022/07/08 11:56:13;;;;;;;3.25;1.58;;;21.30;64.40;;;;;;5081943;27;43432;-61
2022/07/08 11:58:41;;;;;;;2.53;1.30;;;21.30;64.30;;;;;;5085078;27;43478;-61
2022/07/08 12:01:09;;;;;;;1.55;1.10;;;21.30;64.20;;;;;;5041888;28;44790;-61
2022/07/08 12:03:38;;;;;;;2.30;1.52;;;21.40;64.50;;;;;;5040482;28;44058;-62
2022/07/08 12:06:06;;;;;;;1.52;1.33;;;21.40;64.40;;;;;;5041753;28;43502;-61
2022/07/08 12:08:41;;;;;;;2.05;1.20;;;21.40;64.20;;;;;;5041770;28;43653;-61
2022/07/08 12:11:19;;;;;;;1.77;0.85;;;21.40;64.40;;;;;;5038004;28;44685;-61
2022/07/08 12:13:52;;;;;;;1.30;1.20;;;21.40;64.20;;;;;;5040470;28;44008;-61
2022/07/08 12:16:29;;;;;;;2.30;1.20;;;21.50;64.30;;;;;;5041435;28;43479;-61
2022/07/08 12:18:57;;;;;;;1.40;1.17;;;21.50;64.20;;;;;;5041748;28;43619;-61
2022/07/08 12:21:25;;;;;;;1.90;1.20;;;21.50;64.30;;;;;;5041215;28;43899;-60
2022/07/08 12:23:59;;;;;;;3.10;1.23;;;21.40;64.40;;;;;;5040435;28;43472;-62
2022/07/08 12:26:27;;;;;;;2.90;1.40;;;21.50;64.40;;;;;;5040891;28;43513;-61
2022/07/08 12:28:56;;;;;;;4.03;1.50;;;21.50;64.50;;;;;;5041437;28;43672;-61
2022/07/08 12:31:38;;;;;;;1.85;1.45;;;21.50;64.50;;;;;;5040701;28;43826;-61
2022/07/08 12:34:08;;;;;;;3.63;1.63;;;21.50;64.50;;;;;;5041308;28;43393;-61
2022/07/08 12:36:35;;;;;;;1.95;1.25;;;21.50;64.60;;;;;;5038723;28;43400;-61
2022/07/08 12:39:21;;;;;;;2.00;1.30;;;21.50;64.50;;;;;;5040851;28;43541;-61
2022/07/08 12:42:02;;;;;;;1.90;1.00;;;21.50;64.60;;;;;;5038360;28;43945;-61
2022/07/08 12:44:29;;;;;;;2.67;1.42;;;21.60;64.60;;;;;;5040532;28;43516;-61
2022/07/08 12:46:56;;;;;;;1.67;1.20;;;21.60;64.60;;;;;;5040794;28;43590;-61
2022/07/08 12:49:28;;;;;;;1.63;1.52;;;21.60;64.60;;;;;;5041276;28;43516;-61
2022/07/08 12:51:56;;;;;;;1.88;1.20;;;21.60;64.50;;;;;;5038749;28;43744;-61
2022/07/08 12:54:24;;;;;;;2.10;1.40;;;21.60;64.60;;;;;;5041240;28;43665;-62
2022/07/08 12:56:54;;;;;;;3.03;1.20;;;21.60;64.70;;;;;;5040229;28;43403;-62
2022/07/08 12:59:22;;;;;;;2.53;1.50;;;21.70;64.50;;;;;;5051056;28;43745;-61
2022/07/08 13:01:50;;;;;;;1.60;1.10;;;21.70;64.60;;;;;;5071516;28;44024;-61